Time;durP1;ratioP1;P1;durP2;ratioP2;P2;SDS_P1;SDS_P2;PMS_P1;PMS_P2;Temp;Humidity;BMP_temperature;BMP_pressure;BME280_temperature;BME280_humidity;BME280_pressure;Samples;Min_cycle;Max_cycle;Signal;HPM_P1;HPM_P2
2021/09/16 00:00:27;;;;;;;3.28;1.75;;;;;;;;;;2098193;28;20273;-51
2021/09/16 00:01:27;;;;;;;4.45;1.73;;;;;;;;;;2089715;28;20194;-50
2021/09/16 00:02:28;;;;;;;6.00;2.22;;;;;;;;;;2089262;28;20183;-52
2021/09/16 00:03:28;;;;;;;4.95;1.90;;;;;;;;;;2098157;28;20239;-52
2021/09/16 00:04:28;;;;;;;2.90;1.88;;;;;;;;;;2098060;28;20223;-55
2021/09/16 00:05:28;;;;;;;5.03;2.10;;;;;;;;;;2090870;28;20175;-54
2021/09/16 00:06:29;;;;;;;3.58;1.60;;;;;;;;;;2098139;28;20209;-52
2021/09/16 00:07:29;;;;;;;2.88;1.75;;;;;;;;;;2099311;28;20266;-56
2021/09/16 00:08:29;;;;;;;2.65;1.95;;;;;;;;;;2091750;28;20239;-57
2021/09/16 00:09:30;;;;;;;2.83;1.58;;;;;;;;;;2095097;28;20171;-54
2021/09/16 00:10:30;;;;;;;2.47;1.77;;;;;;;;;;2094334;28;20203;-53
2021/09/16 00:11:30;;;;;;;1.90;1.80;;;;;;;;;;2091674;28;20284;-51
2021/09/16 00:12:31;;;;;;;2.55;1.92;;;;;;;;;;2098261;28;20191;-58
2021/09/16 00:13:31;;;;;;;4.13;2.20;;;;;;;;;;2098098;28;20650;-53
2021/09/16 00:14:31;;;;;;;3.50;1.77;;;;;;;;;;2097988;28;20166;-52
2021/09/16 00:15:31;;;;;;;2.97;1.90;;;;;;;;;;2098402;28;20210;-51
2021/09/16 00:16:31;;;;;;;5.55;2.03;;;;;;;;;;2098032;28;20175;-51
2021/09/16 00:17:32;;;;;;;4.88;2.13;;;;;;;;;;2089065;28;20168;-54
2021/09/16 00:18:32;;;;;;;3.55;1.85;;;;;;;;;;2080488;28;20172;-50
2021/09/16 00:19:32;;;;;;;3.15;2.10;;;;;;;;;;2089002;28;20230;-50
2021/09/16 00:20:33;;;;;;;2.35;1.60;;;;;;;;;;2089215;28;20204;-50
2021/09/16 00:21:33;;;;;;;3.17;1.67;;;;;;;;;;2080294;28;20204;-51
2021/09/16 00:22:34;;;;;;;5.55;2.00;;;;;;;;;;2089178;28;20175;-56
2021/09/16 00:23:34;;;;;;;3.75;2.08;;;;;;;;;;2088760;28;20190;-52
2021/09/16 00:24:34;;;;;;;3.88;1.98;;;;;;;;;;2088923;28;20229;-50
2021/09/16 00:25:35;;;;;;;4.88;2.03;;;;;;;;;;2097894;28;20737;-51
2021/09/16 00:26:35;;;;;;;4.25;2.20;;;;;;;;;;2088775;28;20262;-53
2021/09/16 00:27:35;;;;;;;3.38;1.80;;;;;;;;;;2088723;28;20643;-52
2021/09/16 00:28:35;;;;;;;3.33;1.90;;;;;;;;;;2088534;28;20525;-53
2021/09/16 00:29:35;;;;;;;5.88;2.05;;;;;;;;;;2088668;28;20648;-53
2021/09/16 00:30:36;;;;;;;2.47;1.65;;;;;;;;;;2089021;28;20230;-57
2021/09/16 00:31:36;;;;;;;1.75;1.63;;;;;;;;;;2088616;28;20277;-56
2021/09/16 00:32:37;;;;;;;4.70;1.80;;;;;;;;;;2097733;28;20174;-53
2021/09/16 00:33:37;;;;;;;3.70;2.00;;;;;;;;;;2097863;28;20167;-53
2021/09/16 00:34:38;;;;;;;2.25;1.80;;;;;;;;;;2098154;28;20174;-54
2021/09/16 00:35:38;;;;;;;7.75;1.98;;;;;;;;;;2097376;28;20557;-53
2021/09/16 00:36:38;;;;;;;3.13;1.60;;;;;;;;;;2097159;28;20592;-55
2021/09/16 00:37:39;;;;;;;4.03;1.80;;;;;;;;;;2096918;28;20173;-53
2021/09/16 00:38:39;;;;;;;2.13;1.92;;;;;;;;;;2097228;28;20181;-55
2021/09/16 00:39:39;;;;;;;1.70;1.60;;;;;;;;;;2087722;28;20176;-54
2021/09/16 00:40:39;;;;;;;1.83;1.70;;;;;;;;;;2088852;28;20167;-57
2021/09/16 00:41:40;;;;;;;2.67;1.88;;;;;;;;;;2097426;28;20202;-53
2021/09/16 00:42:41;;;;;;;1.67;1.58;;;;;;;;;;2097979;28;20197;-49
2021/09/16 00:43:41;;;;;;;1.80;1.38;;;;;;;;;;2097743;28;20203;-55
2021/09/16 00:44:41;;;;;;;3.67;1.65;;;;;;;;;;2097955;28;20163;-55
2021/09/16 00:45:42;;;;;;;5.63;1.80;;;;;;;;;;2097512;28;20171;-55
2021/09/16 00:46:42;;;;;;;5.05;1.50;;;;;;;;;;2097820;28;20179;-51
2021/09/16 00:47:47;;;;;;;2.65;1.65;;;;;;;;;;2097747;28;20190;-51
2021/09/16 00:48:48;;;;;;;2.35;1.60;;;;;;;;;;2097651;28;20163;-51
2021/09/16 00:49:49;;;;;;;1.98;1.38;;;;;;;;;;2097615;28;20175;-49
2021/09/16 00:50:49;;;;;;;6.22;1.83;;;;;;;;;;2089083;28;20669;-53
2021/09/16 00:51:50;;;;;;;3.00;1.73;;;;;;;;;;2089080;28;20180;-50
2021/09/16 00:52:51;;;;;;;3.90;1.30;;;;;;;;;;2089308;28;20628;-51
2021/09/16 00:53:53;;;;;;;1.77;1.55;;;;;;;;;;2089646;28;20183;-54
2021/09/16 00:54:54;;;;;;;2.00;1.50;;;;;;;;;;2089665;28;20729;-52
2021/09/16 00:55:55;;;;;;;5.07;1.50;;;;;;;;;;2088930;28;20211;-51
2021/09/16 00:56:55;;;;;;;2.22;1.45;;;;;;;;;;2090516;28;20168;-55
2021/09/16 00:57:59;;;;;;;1.95;1.40;;;;;;;;;;2099686;28;20171;-54
2021/09/16 00:59:00;;;;;;;4.28;1.38;;;;;;;;;;2091871;28;20183;-51
2021/09/16 01:00:03;;;;;;;1.50;1.40;;;;;;;;;;2091746;28;20227;-51
2021/09/16 01:01:03;;;;;;;1.75;1.40;;;;;;;;;;2100127;28;20258;-51
2021/09/16 01:02:04;;;;;;;3.38;1.58;;;;;;;;;;2097915;28;20175;-54
2021/09/16 01:03:04;;;;;;;7.15;1.48;;;;;;;;;;2099120;28;20167;-54
2021/09/16 01:04:05;;;;;;;2.65;1.35;;;;;;;;;;2099697;28;20228;-51
2021/09/16 01:05:05;;;;;;;2.90;1.48;;;;;;;;;;2099669;28;20556;-52
2021/09/16 01:06:06;;;;;;;7.22;1.50;;;;;;;;;;2090358;28;20167;-52
2021/09/16 01:07:08;;;;;;;1.75;1.42;;;;;;;;;;2081427;28;20220;-52
2021/09/16 01:08:09;;;;;;;2.67;1.42;;;;;;;;;;2090094;28;20642;-52
2021/09/16 01:09:10;;;;;;;3.15;1.75;;;;;;;;;;2099217;28;20175;-51
2021/09/16 01:10:11;;;;;;;5.82;1.83;;;;;;;;;;2099306;28;20170;-54
2021/09/16 01:11:11;;;;;;;4.53;1.52;;;;;;;;;;2090364;28;20202;-52
2021/09/16 01:12:11;;;;;;;3.20;1.63;;;;;;;;;;2090371;28;20224;-53
2021/09/16 01:13:13;;;;;;;2.45;1.50;;;;;;;;;;2090368;28;20609;-54
2021/09/16 01:14:23;;;;;;;2.22;1.50;;;;;;;;;;2082381;28;20187;-55
2021/09/16 01:15:23;;;;;;;2.28;1.52;;;;;;;;;;2091012;28;20871;-55
2021/09/16 01:16:23;;;;;;;1.70;1.52;;;;;;;;;;2099129;28;20155;-57
2021/09/16 01:17:23;;;;;;;3.70;2.10;;;;;;;;;;2103480;28;20270;-56
2021/09/16 01:18:24;;;;;;;2.45;1.50;;;;;;;;;;2088253;28;20175;-57
2021/09/16 01:19:24;;;;;;;2.90;1.80;;;;;;;;;;2089064;28;20230;-56
2021/09/16 01:20:25;;;;;;;2.63;1.52;;;;;;;;;;2099374;28;20206;-54
2021/09/16 01:21:26;;;;;;;4.63;2.08;;;;;;;;;;2099147;28;20282;-50
2021/09/16 01:22:30;;;;;;;1.58;1.40;;;;;;;;;;2099143;28;20175;-50
2021/09/16 01:23:31;;;;;;;2.70;1.55;;;;;;;;;;2090073;28;20191;-51
2021/09/16 01:24:31;;;;;;;2.80;1.60;;;;;;;;;;2089574;28;20718;-57
2021/09/16 01:25:32;;;;;;;1.77;1.55;;;;;;;;;;2098909;28;20181;-61
2021/09/16 01:26:32;;;;;;;2.67;1.30;;;;;;;;;;2090206;28;20194;-52
2021/09/16 01:27:32;;;;;;;4.78;1.52;;;;;;;;;;2090333;28;20174;-55
2021/09/16 01:28:33;;;;;;;1.65;1.55;;;;;;;;;;2098520;28;20186;-53
2021/09/16 01:29:33;;;;;;;2.97;1.52;;;;;;;;;;2098904;28;20198;-53
2021/09/16 01:30:33;;;;;;;2.80;1.77;;;;;;;;;;2099044;28;20229;-58
2021/09/16 01:31:35;;;;;;;3.78;1.60;;;;;;;;;;2099275;23;20203;-59
2021/09/16 01:32:36;;;;;;;3.70;1.40;;;;;;;;;;2080350;28;20183;-58
2021/09/16 01:33:36;;;;;;;5.20;1.70;;;;;;;;;;2089287;28;20581;-59
2021/09/16 01:34:36;;;;;;;4.88;1.55;;;;;;;;;;2096099;28;20167;-56
2021/09/16 01:35:37;;;;;;;2.70;1.50;;;;;;;;;;2090571;28;20167;-55
2021/09/16 01:36:38;;;;;;;2.33;1.70;;;;;;;;;;2092357;28;20632;-50
2021/09/16 01:37:38;;;;;;;3.90;1.35;;;;;;;;;;2088225;28;20170;-56
2021/09/16 01:38:38;;;;;;;2.85;1.77;;;;;;;;;;2080539;28;20196;-59
2021/09/16 01:39:39;;;;;;;3.08;1.40;;;;;;;;;;2084741;28;20887;-58
2021/09/16 01:40:40;;;;;;;1.30;1.20;;;;;;;;;;2094252;28;20190;-60
2021/09/16 01:41:41;;;;;;;2.97;1.52;;;;;;;;;;2097806;28;20218;-60
2021/09/16 01:42:42;;;;;;;3.95;1.45;;;;;;;;;;2097510;28;20178;-54
2021/09/16 01:43:42;;;;;;;4.78;1.88;;;;;;;;;;2072839;28;20271;-56
2021/09/16 01:44:45;;;;;;;3.13;1.65;;;;;;;;;;2074629;28;20268;-58
2021/09/16 01:45:45;;;;;;;1.95;1.40;;;;;;;;;;2098244;28;20163;-55
2021/09/16 01:46:45;;;;;;;4.60;1.95;;;;;;;;;;2091970;28;20179;-56
2021/09/16 01:47:46;;;;;;;3.65;2.10;;;;;;;;;;2088684;28;20167;-55
2021/09/16 01:48:47;;;;;;;1.50;1.40;;;;;;;;;;2087868;28;20273;-54
2021/09/16 01:49:47;;;;;;;2.65;1.80;;;;;;;;;;2091894;28;20234;-55
2021/09/16 01:50:48;;;;;;;1.88;1.48;;;;;;;;;;2095864;28;20204;-58
2021/09/16 01:51:48;;;;;;;2.15;1.33;;;;;;;;;;2098181;28;20186;-58
2021/09/16 01:52:49;;;;;;;1.77;1.23;;;;;;;;;;2092916;28;20210;-62
2021/09/16 01:53:49;;;;;;;2.13;1.67;;;;;;;;;;2088340;28;20183;-58
2021/09/16 01:54:49;;;;;;;4.15;1.70;;;;;;;;;;2089090;28;20180;-55
2021/09/16 01:55:49;;;;;;;1.88;1.50;;;;;;;;;;2098372;28;20174;-59
2021/09/16 01:56:50;;;;;;;2.00;1.50;;;;;;;;;;2098041;28;20190;-56
2021/09/16 01:57:50;;;;;;;2.17;1.33;;;;;;;;;;2095698;28;20688;-53
2021/09/16 01:58:51;;;;;;;3.22;1.50;;;;;;;;;;2092225;28;20177;-56
2021/09/16 01:59:51;;;;;;;1.67;1.20;;;;;;;;;;2095782;28;20560;-58
2021/09/16 02:00:51;;;;;;;2.92;1.42;;;;;;;;;;2098014;28;20186;-58
2021/09/16 02:01:52;;;;;;;1.67;1.25;;;;;;;;;;2096218;28;20195;-57
2021/09/16 02:02:52;;;;;;;3.05;1.58;;;;;;;;;;2097919;28;20206;-55
2021/09/16 02:03:52;;;;;;;2.10;1.50;;;;;;;;;;2081238;28;20168;-54
2021/09/16 02:04:53;;;;;;;2.15;1.83;;;;;;;;;;2080724;28;20684;-55
2021/09/16 02:05:53;;;;;;;4.13;1.73;;;;;;;;;;2098140;28;20171;-58
2021/09/16 02:06:53;;;;;;;4.65;2.00;;;;;;;;;;2093050;28;20182;-57
2021/09/16 02:07:53;;;;;;;2.88;1.50;;;;;;;;;;2098255;28;20526;-60
2021/09/16 02:08:54;;;;;;;2.00;1.50;;;;;;;;;;2089405;28;20168;-62
2021/09/16 02:09:54;;;;;;;1.63;1.40;;;;;;;;;;2089682;28;20325;-54
2021/09/16 02:10:54;;;;;;;3.47;1.40;;;;;;;;;;2098293;28;20203;-58
2021/09/16 02:11:55;;;;;;;2.38;1.48;;;;;;;;;;2098830;28;20217;-57
2021/09/16 02:12:55;;;;;;;2.72;1.42;;;;;;;;;;2098896;28;20171;-55
2021/09/16 02:13:55;;;;;;;3.53;1.63;;;;;;;;;;2089621;28;20179;-55
2021/09/16 02:14:55;;;;;;;1.50;1.42;;;;;;;;;;2089927;28;20172;-55
2021/09/16 02:15:56;;;;;;;3.53;1.48;;;;;;;;;;2096719;28;20208;-53
2021/09/16 02:16:56;;;;;;;2.08;1.23;;;;;;;;;;2093701;28;20270;-61
2021/09/16 02:17:56;;;;;;;2.67;1.40;;;;;;;;;;2095895;28;20179;-56
2021/09/16 02:18:57;;;;;;;2.65;1.30;;;;;;;;;;2089360;28;20254;-57
2021/09/16 02:19:57;;;;;;;2.72;1.73;;;;;;;;;;2089445;28;20706;-57
2021/09/16 02:20:57;;;;;;;2.90;1.70;;;;;;;;;;2090347;28;20180;-62
2021/09/16 02:21:57;;;;;;;1.83;1.40;;;;;;;;;;2088212;28;20192;-58
2021/09/16 02:22:58;;;;;;;2.47;1.65;;;;;;;;;;2097541;28;20190;-61
2021/09/16 02:23:58;;;;;;;2.28;1.80;;;;;;;;;;2097077;28;20179;-59
2021/09/16 02:24:58;;;;;;;2.35;1.35;;;;;;;;;;2095708;28;20183;-57
2021/09/16 02:25:58;;;;;;;2.58;1.60;;;;;;;;;;2092427;28;20209;-59
2021/09/16 02:26:59;;;;;;;2.65;1.80;;;;;;;;;;2094381;28;20171;-57
2021/09/16 02:27:59;;;;;;;1.45;1.35;;;;;;;;;;2094209;28;20191;-59
2021/09/16 02:28:59;;;;;;;2.85;1.70;;;;;;;;;;2085684;28;20176;-57
2021/09/16 02:29:59;;;;;;;3.17;1.70;;;;;;;;;;2084702;28;20187;-59
2021/09/16 02:31:00;;;;;;;5.43;1.80;;;;;;;;;;2096919;28;20198;-57
2021/09/16 02:32:00;;;;;;;7.50;2.00;;;;;;;;;;2093992;28;20203;-57
2021/09/16 02:33:04;;;;;;;4.13;1.77;;;;;;;;;;2098968;28;20562;-59
2021/09/16 02:34:04;;;;;;;4.03;1.77;;;;;;;;;;2098319;28;20175;-60
2021/09/16 02:35:05;;;;;;;3.45;1.67;;;;;;;;;;2089935;28;20329;-57
2021/09/16 02:36:05;;;;;;;3.28;1.45;;;;;;;;;;2088856;28;20172;-61
2021/09/16 02:37:05;;;;;;;1.63;1.45;;;;;;;;;;2094559;28;20268;-61
2021/09/16 02:38:05;;;;;;;4.32;1.52;;;;;;;;;;2095001;28;20155;-61
2021/09/16 02:39:06;;;;;;;1.95;1.55;;;;;;;;;;2089567;28;20219;-58
2021/09/16 02:40:07;;;;;;;5.10;1.83;;;;;;;;;;2089364;28;20171;-61
2021/09/16 02:41:07;;;;;;;4.65;1.85;;;;;;;;;;2098898;28;20542;-59
2021/09/16 02:42:08;;;;;;;3.28;1.17;;;;;;;;;;2096507;28;20206;-59
2021/09/16 02:43:08;;;;;;;1.73;1.63;;;;;;;;;;2099511;28;20608;-61
2021/09/16 02:44:08;;;;;;;1.77;1.67;;;;;;;;;;2094898;28;20545;-60
2021/09/16 02:45:09;;;;;;;4.13;1.70;;;;;;;;;;2092350;28;20202;-60
2021/09/16 02:46:09;;;;;;;3.83;1.70;;;;;;;;;;2096374;28;20485;-58
2021/09/16 02:47:10;;;;;;;2.13;1.65;;;;;;;;;;2097667;28;20276;-59
2021/09/16 02:48:10;;;;;;;2.80;1.88;;;;;;;;;;2095529;28;20171;-59
2021/09/16 02:49:10;;;;;;;4.93;1.70;;;;;;;;;;2094980;28;20167;-58
2021/09/16 02:50:11;;;;;;;4.25;2.42;;;;;;;;;;2098131;28;20163;-58
2021/09/16 02:51:11;;;;;;;3.17;1.70;;;;;;;;;;2083024;28;20219;-57
2021/09/16 02:52:11;;;;;;;3.85;1.88;;;;;;;;;;2088323;28;20536;-60
2021/09/16 02:53:11;;;;;;;3.55;2.03;;;;;;;;;;2085971;28;20168;-57
2021/09/16 02:54:12;;;;;;;4.20;1.58;;;;;;;;;;2089044;28;20261;-58
2021/09/16 02:55:14;;;;;;;3.33;1.60;;;;;;;;;;2088894;28;20183;-57
2021/09/16 02:56:15;;;;;;;2.05;1.85;;;;;;;;;;2083293;28;20598;-60
2021/09/16 02:57:15;;;;;;;2.08;1.63;;;;;;;;;;2088094;28;20183;-59
2021/09/16 02:58:15;;;;;;;4.47;2.13;;;;;;;;;;2098118;28;20171;-56
2021/09/16 02:59:16;;;;;;;4.85;1.73;;;;;;;;;;2096605;28;20171;-55
2021/09/16 03:00:16;;;;;;;1.67;1.58;;;;;;;;;;2095510;28;20761;-57
2021/09/16 03:01:16;;;;;;;2.53;1.83;;;;;;;;;;2099639;28;20828;-60
2021/09/16 03:02:16;;;;;;;3.15;1.70;;;;;;;;;;2090914;28;20241;-56
2021/09/16 03:03:17;;;;;;;3.13;1.70;;;;;;;;;;2085173;28;20325;-57
2021/09/16 03:04:17;;;;;;;2.53;1.85;;;;;;;;;;2089016;28;20646;-59
2021/09/16 03:05:17;;;;;;;2.20;1.60;;;;;;;;;;2098602;28;20174;-61
2021/09/16 03:06:17;;;;;;;3.00;1.67;;;;;;;;;;2088591;28;20210;-60
2021/09/16 03:07:17;;;;;;;2.15;1.95;;;;;;;;;;2085942;28;20551;-56
2021/09/16 03:08:18;;;;;;;5.53;1.70;;;;;;;;;;2090413;28;20719;-54
2021/09/16 03:09:18;;;;;;;4.95;1.92;;;;;;;;;;2096657;28;20666;-60
2021/09/16 03:10:18;;;;;;;4.90;2.00;;;;;;;;;;2094426;28;20243;-56
2021/09/16 03:11:19;;;;;;;2.17;1.75;;;;;;;;;;2097669;28;20175;-58
2021/09/16 03:12:19;;;;;;;5.05;1.90;;;;;;;;;;2091005;28;20183;-55
2021/09/16 03:13:19;;;;;;;3.55;2.05;;;;;;;;;;2096399;28;20174;-57
2021/09/16 03:14:19;;;;;;;1.58;1.48;;;;;;;;;;2089046;28;20294;-58
2021/09/16 03:15:20;;;;;;;2.13;1.48;;;;;;;;;;2082694;28;20172;-58
2021/09/16 03:16:20;;;;;;;3.78;2.05;;;;;;;;;;2087902;28;20176;-59
2021/09/16 03:17:20;;;;;;;3.85;1.88;;;;;;;;;;2098202;28;20174;-56
2021/09/16 03:18:20;;;;;;;2.85;1.90;;;;;;;;;;2087539;28;20194;-57
2021/09/16 03:19:21;;;;;;;4.45;1.90;;;;;;;;;;2089043;28;20167;-60
2021/09/16 03:20:21;;;;;;;1.50;1.38;;;;;;;;;;2097956;28;20639;-57
2021/09/16 03:21:21;;;;;;;2.28;1.67;;;;;;;;;;2096659;28;20643;-54
2021/09/16 03:22:21;;;;;;;5.40;2.17;;;;;;;;;;2096379;28;20309;-57
2021/09/16 03:23:22;;;;;;;3.65;2.10;;;;;;;;;;2095651;28;20220;-57
2021/09/16 03:24:22;;;;;;;2.90;1.77;;;;;;;;;;2096498;28;20167;-63
2021/09/16 03:25:22;;;;;;;3.10;2.20;;;;;;;;;;2095247;28;20187;-61
2021/09/16 03:26:23;;;;;;;2.13;1.90;;;;;;;;;;2089087;28;20175;-57
2021/09/16 03:27:23;;;;;;;4.50;2.08;;;;;;;;;;2089015;28;20798;-59
2021/09/16 03:28:23;;;;;;;3.85;2.00;;;;;;;;;;2097748;28;20178;-58
2021/09/16 03:29:23;;;;;;;4.97;1.85;;;;;;;;;;2095311;28;20186;-58
2021/09/16 03:30:23;;;;;;;5.07;2.00;;;;;;;;;;2097024;28;20206;-57
2021/09/16 03:31:24;;;;;;;4.53;2.40;;;;;;;;;;2094897;28;20655;-58
2021/09/16 03:32:24;;;;;;;3.60;2.17;;;;;;;;;;2097335;28;20236;-59
2021/09/16 03:33:24;;;;;;;3.85;2.10;;;;;;;;;;2097472;28;20179;-59
2021/09/16 03:34:24;;;;;;;3.97;2.38;;;;;;;;;;2097644;28;20167;-59
2021/09/16 03:35:25;;;;;;;2.58;2.22;;;;;;;;;;2097494;28;20185;-61
2021/09/16 03:36:25;;;;;;;4.60;2.25;;;;;;;;;;2098136;28;20553;-60
2021/09/16 03:37:25;;;;;;;4.20;2.40;;;;;;;;;;2090769;28;20513;-58
2021/09/16 03:38:26;;;;;;;2.63;2.42;;;;;;;;;;2097463;28;20202;-57
2021/09/16 03:39:26;;;;;;;3.90;2.08;;;;;;;;;;2097492;28;20248;-59
2021/09/16 03:40:26;;;;;;;4.20;2.05;;;;;;;;;;2088386;28;20163;-60
2021/09/16 03:41:27;;;;;;;2.47;1.92;;;;;;;;;;2087216;28;20269;-60
2021/09/16 03:42:27;;;;;;;5.95;1.98;;;;;;;;;;2097479;28;20178;-59
2021/09/16 03:43:27;;;;;;;2.97;2.42;;;;;;;;;;2092998;28;20198;-55
2021/09/16 03:44:27;;;;;;;1.90;1.80;;;;;;;;;;2090096;28;20547;-60
2021/09/16 03:45:28;;;;;;;2.28;1.90;;;;;;;;;;2090141;28;20190;-61
2021/09/16 03:46:28;;;;;;;3.20;2.15;;;;;;;;;;2097519;28;20190;-62
2021/09/16 03:47:28;;;;;;;2.10;1.90;;;;;;;;;;2088651;28;20168;-61
2021/09/16 03:48:28;;;;;;;3.72;2.15;;;;;;;;;;2088983;28;20675;-57
2021/09/16 03:49:29;;;;;;;1.92;1.77;;;;;;;;;;2090012;28;20172;-60
2021/09/16 03:50:29;;;;;;;3.78;2.30;;;;;;;;;;2097110;28;20199;-51
2021/09/16 03:51:29;;;;;;;3.10;2.33;;;;;;;;;;2097170;28;20182;-59
2021/09/16 03:52:29;;;;;;;6.03;2.42;;;;;;;;;;2097079;28;20654;-57
2021/09/16 03:53:30;;;;;;;2.78;2.22;;;;;;;;;;2097935;28;20254;-60
2021/09/16 03:54:30;;;;;;;3.50;2.00;;;;;;;;;;2097486;28;20551;-59
2021/09/16 03:55:30;;;;;;;3.28;2.35;;;;;;;;;;2089831;28;20163;-61
2021/09/16 03:56:31;;;;;;;2.40;2.20;;;;;;;;;;2087065;28;20182;-58
2021/09/16 03:57:31;;;;;;;4.32;2.70;;;;;;;;;;2088075;28;20217;-60
2021/09/16 03:58:31;;;;;;;6.18;2.47;;;;;;;;;;2094813;28;20229;-59
2021/09/16 03:59:32;;;;;;;3.58;2.50;;;;;;;;;;2098140;28;20570;-54
2021/09/16 04:00:32;;;;;;;5.57;2.30;;;;;;;;;;2088954;28;20584;-57
2021/09/16 04:01:32;;;;;;;2.88;1.92;;;;;;;;;;2087756;28;20633;-61
2021/09/16 04:02:33;;;;;;;4.30;2.47;;;;;;;;;;2097987;28;20170;-63
2021/09/16 04:03:33;;;;;;;2.25;1.92;;;;;;;;;;2096580;28;20213;-60
2021/09/16 04:04:33;;;;;;;2.00;1.85;;;;;;;;;;2090080;28;20191;-59
2021/09/16 04:05:34;;;;;;;4.82;2.03;;;;;;;;;;2088319;28;20172;-61
2021/09/16 04:06:34;;;;;;;2.38;2.17;;;;;;;;;;2080634;28;20250;-57
2021/09/16 04:07:34;;;;;;;3.80;2.30;;;;;;;;;;2088530;28;20210;-61
2021/09/16 04:08:34;;;;;;;5.53;2.95;;;;;;;;;;2087128;28;20175;-59
2021/09/16 04:09:35;;;;;;;2.05;1.80;;;;;;;;;;2089810;28;20198;-59
2021/09/16 04:10:35;;;;;;;2.67;2.05;;;;;;;;;;2095635;28;20203;-61
2021/09/16 04:11:35;;;;;;;3.72;2.08;;;;;;;;;;2093825;28;20159;-60
2021/09/16 04:12:36;;;;;;;2.90;2.05;;;;;;;;;;2097076;28;20714;-57
2021/09/16 04:13:36;;;;;;;2.60;2.08;;;;;;;;;;2096289;28;20288;-56
2021/09/16 04:14:36;;;;;;;4.55;2.67;;;;;;;;;;2089919;28;20202;-56
2021/09/16 04:15:37;;;;;;;4.25;2.22;;;;;;;;;;2096945;28;20175;-54
2021/09/16 04:16:37;;;;;;;4.45;2.28;;;;;;;;;;2095741;28;20175;-57
2021/09/16 04:17:37;;;;;;;3.10;2.03;;;;;;;;;;2090268;28;20241;-56
2021/09/16 04:18:37;;;;;;;2.50;2.30;;;;;;;;;;2088381;28;20164;-60
2021/09/16 04:19:38;;;;;;;5.03;2.30;;;;;;;;;;2088105;28;20175;-60
2021/09/16 04:20:38;;;;;;;6.65;2.75;;;;;;;;;;2094093;28;20183;-55
2021/09/16 04:21:38;;;;;;;3.55;2.30;;;;;;;;;;2096458;28;20194;-59
2021/09/16 04:22:38;;;;;;;4.85;2.38;;;;;;;;;;2094979;28;20281;-55
2021/09/16 04:23:39;;;;;;;2.75;2.17;;;;;;;;;;2090096;28;20171;-55
2021/09/16 04:24:39;;;;;;;5.60;2.40;;;;;;;;;;2081339;28;20187;-54
2021/09/16 04:25:39;;;;;;;4.70;2.40;;;;;;;;;;2088150;28;20168;-59
2021/09/16 04:26:40;;;;;;;2.25;2.15;;;;;;;;;;2095619;28;20178;-59
2021/09/16 04:27:41;;;;;;;6.40;2.72;;;;;;;;;;2095796;28;20186;-60
2021/09/16 04:28:41;;;;;;;4.18;2.20;;;;;;;;;;2090508;28;20187;-59
2021/09/16 04:29:41;;;;;;;3.25;2.10;;;;;;;;;;2088368;28;20175;-57
2021/09/16 04:30:42;;;;;;;5.45;2.50;;;;;;;;;;2091660;28;20225;-59
2021/09/16 04:31:42;;;;;;;4.50;2.65;;;;;;;;;;2097000;28;20198;-57
2021/09/16 04:32:42;;;;;;;3.63;2.10;;;;;;;;;;2087940;28;20183;-60
2021/09/16 04:33:42;;;;;;;7.88;2.70;;;;;;;;;;2073905;28;20565;-58
2021/09/16 04:34:43;;;;;;;2.75;2.17;;;;;;;;;;2087744;28;20175;-58
2021/09/16 04:35:43;;;;;;;3.90;2.88;;;;;;;;;;2096594;28;20167;-57
2021/09/16 04:36:43;;;;;;;5.70;3.08;;;;;;;;;;2088930;28;20664;-58
2021/09/16 04:37:43;;;;;;;6.30;3.10;;;;;;;;;;2088192;28;20168;-56
2021/09/16 04:38:44;;;;;;;3.75;2.70;;;;;;;;;;2098883;28;20170;-55
2021/09/16 04:39:44;;;;;;;3.40;2.58;;;;;;;;;;2096692;28;20618;-58
2021/09/16 04:40:44;;;;;;;4.13;2.75;;;;;;;;;;2098207;28;20882;-58
2021/09/16 04:41:45;;;;;;;4.13;2.47;;;;;;;;;;2089629;28;20571;-57
2021/09/16 04:42:45;;;;;;;6.22;2.47;;;;;;;;;;2089666;28;20216;-62
2021/09/16 04:43:45;;;;;;;2.70;2.50;;;;;;;;;;2089423;28;20183;-54
2021/09/16 04:44:46;;;;;;;5.32;2.90;;;;;;;;;;2090535;28;20192;-59
2021/09/16 04:45:46;;;;;;;3.25;2.65;;;;;;;;;;2095287;28;20211;-54
2021/09/16 04:46:46;;;;;;;2.75;2.30;;;;;;;;;;2097169;28;20618;-58
2021/09/16 04:47:46;;;;;;;5.35;2.75;;;;;;;;;;2095055;28;20172;-57
2021/09/16 04:48:46;;;;;;;6.03;2.63;;;;;;;;;;2098419;28;20228;-53
2021/09/16 04:49:47;;;;;;;3.35;2.67;;;;;;;;;;2097209;28;20186;-57
2021/09/16 04:50:47;;;;;;;4.20;2.63;;;;;;;;;;2096593;28;20244;-57
2021/09/16 04:51:47;;;;;;;4.18;3.13;;;;;;;;;;2097932;28;20807;-56
2021/09/16 04:52:47;;;;;;;5.07;3.10;;;;;;;;;;2098628;28;20639;-61
2021/09/16 04:53:48;;;;;;;6.55;2.90;;;;;;;;;;2098607;28;20193;-58
2021/09/16 04:54:48;;;;;;;5.63;3.30;;;;;;;;;;2099421;28;20198;-54
2021/09/16 04:55:48;;;;;;;3.45;3.15;;;;;;;;;;2098393;28;20191;-60
2021/09/16 04:56:49;;;;;;;4.88;3.20;;;;;;;;;;2090449;28;20183;-55
2021/09/16 04:57:49;;;;;;;4.35;2.78;;;;;;;;;;2088918;28;20245;-59
2021/09/16 04:58:49;;;;;;;5.05;2.67;;;;;;;;;;2095815;28;20182;-57
2021/09/16 04:59:50;;;;;;;3.70;3.15;;;;;;;;;;2093631;28;20179;-57
2021/09/16 05:00:50;;;;;;;3.42;2.60;;;;;;;;;;2096236;28;20186;-61
2021/09/16 05:01:50;;;;;;;4.75;3.20;;;;;;;;;;2090203;28;20234;-57
2021/09/16 05:02:50;;;;;;;6.07;3.80;;;;;;;;;;2089975;28;20179;-59
2021/09/16 05:03:51;;;;;;;4.22;2.85;;;;;;;;;;2093818;28;20216;-55
2021/09/16 05:04:51;;;;;;;4.00;3.13;;;;;;;;;;2089536;28;20259;-53
2021/09/16 05:05:51;;;;;;;5.45;3.72;;;;;;;;;;2078495;28;20660;-58
2021/09/16 05:06:51;;;;;;;4.90;3.50;;;;;;;;;;2085981;28;20181;-59
2021/09/16 05:07:52;;;;;;;3.70;3.17;;;;;;;;;;2098624;28;20171;-62
2021/09/16 05:08:52;;;;;;;4.07;3.47;;;;;;;;;;2095531;28;20186;-57
2021/09/16 05:09:52;;;;;;;4.50;3.28;;;;;;;;;;2096513;28;20541;-60
2021/09/16 05:10:52;;;;;;;5.18;3.47;;;;;;;;;;2089276;28;20195;-55
2021/09/16 05:11:53;;;;;;;4.22;3.55;;;;;;;;;;2090416;28;20183;-61
2021/09/16 05:12:53;;;;;;;7.22;3.55;;;;;;;;;;2098884;28;20612;-60
2021/09/16 05:13:53;;;;;;;6.95;3.95;;;;;;;;;;2099184;28;20249;-58
2021/09/16 05:14:53;;;;;;;4.93;3.30;;;;;;;;;;2098728;28;20171;-53
2021/09/16 05:15:53;;;;;;;6.97;4.15;;;;;;;;;;2098294;28;20167;-53
2021/09/16 05:16:54;;;;;;;4.85;4.35;;;;;;;;;;2089211;28;20171;-58
2021/09/16 05:17:54;;;;;;;7.60;4.00;;;;;;;;;;2087160;28;20315;-57
2021/09/16 05:18:54;;;;;;;8.10;3.75;;;;;;;;;;2080128;28;20308;-56
2021/09/16 05:19:54;;;;;;;10.13;4.03;;;;;;;;;;2073140;28;20161;-55
2021/09/16 05:20:55;;;;;;;7.78;3.85;;;;;;;;;;2089544;28;20176;-55
2021/09/16 05:21:55;;;;;;;4.07;3.70;;;;;;;;;;2087770;28;20206;-58
2021/09/16 05:22:55;;;;;;;7.15;4.00;;;;;;;;;;2089299;28;20163;-62
2021/09/16 05:23:56;;;;;;;5.57;3.80;;;;;;;;;;2089274;28;20175;-59
2021/09/16 05:24:56;;;;;;;4.68;3.80;;;;;;;;;;2089430;28;20179;-57
2021/09/16 05:25:56;;;;;;;6.68;4.25;;;;;;;;;;2089270;28;20212;-56
2021/09/16 05:26:57;;;;;;;5.22;3.67;;;;;;;;;;2080888;28;20176;-61
2021/09/16 05:27:58;;;;;;;5.22;3.80;;;;;;;;;;2088914;28;20199;-58
2021/09/16 05:28:58;;;;;;;8.77;4.57;;;;;;;;;;2094924;28;20211;-60
2021/09/16 05:29:58;;;;;;;5.60;4.30;;;;;;;;;;2089433;28;20179;-57
2021/09/16 05:30:58;;;;;;;6.85;3.95;;;;;;;;;;2088732;28;20191;-58
2021/09/16 05:31:59;;;;;;;6.30;3.67;;;;;;;;;;2098108;28;20605;-56
2021/09/16 05:32:59;;;;;;;5.65;3.72;;;;;;;;;;2098309;28;20179;-57
2021/09/16 05:33:59;;;;;;;6.60;4.22;;;;;;;;;;2097922;28;20236;-56
2021/09/16 05:35:00;;;;;;;6.65;4.00;;;;;;;;;;2098687;28;20166;-57
2021/09/16 05:36:02;;;;;;;5.80;4.10;;;;;;;;;;2098219;28;20166;-60
2021/09/16 05:37:02;;;;;;;6.82;4.22;;;;;;;;;;2097138;28;20751;-63
2021/09/16 05:38:03;;;;;;;5.63;4.15;;;;;;;;;;2096326;28;20171;-57
2021/09/16 05:39:04;;;;;;;4.05;3.65;;;;;;;;;;2095173;28;20170;-57
2021/09/16 05:40:04;;;;;;;5.80;3.90;;;;;;;;;;2098556;28;20182;-57
2021/09/16 05:41:05;;;;;;;6.43;4.18;;;;;;;;;;2095481;28;20543;-60
2021/09/16 05:42:05;;;;;;;6.20;4.20;;;;;;;;;;2097867;28;20234;-58
2021/09/16 05:43:05;;;;;;;4.40;4.00;;;;;;;;;;2095158;28;20253;-55
2021/09/16 05:44:05;;;;;;;6.25;3.67;;;;;;;;;;2098024;28;20232;-57
2021/09/16 05:45:06;;;;;;;6.47;3.60;;;;;;;;;;2087355;28;20507;-59
2021/09/16 05:46:07;;;;;;;8.85;4.60;;;;;;;;;;2083727;28;20221;-61
2021/09/16 05:47:07;;;;;;;7.05;4.07;;;;;;;;;;2094516;28;20171;-58
2021/09/16 05:48:07;;;;;;;8.60;4.38;;;;;;;;;;2085382;28;20176;-58
2021/09/16 05:49:08;;;;;;;6.70;4.32;;;;;;;;;;2089576;28;20176;-57
2021/09/16 05:50:08;;;;;;;6.90;4.03;;;;;;;;;;2088951;28;20281;-58
2021/09/16 05:51:08;;;;;;;7.95;4.55;;;;;;;;;;2089183;28;20202;-58
2021/09/16 05:52:08;;;;;;;4.55;3.95;;;;;;;;;;2098514;28;20216;-60
2021/09/16 05:53:10;;;;;;;7.63;4.20;;;;;;;;;;2097327;28;20186;-54
2021/09/16 05:54:10;;;;;;;4.07;3.78;;;;;;;;;;2098833;28;20731;-60
2021/09/16 05:55:10;;;;;;;6.50;4.65;;;;;;;;;;2100056;28;20167;-60
2021/09/16 05:56:10;;;;;;;6.05;4.10;;;;;;;;;;2099756;28;20175;-61
2021/09/16 05:57:11;;;;;;;6.10;4.55;;;;;;;;;;2099838;28;20163;-60
2021/09/16 05:58:11;;;;;;;7.70;3.95;;;;;;;;;;2090408;28;20163;-62
2021/09/16 05:59:11;;;;;;;8.43;4.22;;;;;;;;;;2085579;28;20208;-64
2021/09/16 06:00:12;;;;;;;6.38;4.68;;;;;;;;;;2099242;28;20175;-67
2021/09/16 06:01:12;;;;;;;4.95;4.45;;;;;;;;;;2090606;28;20171;-66
2021/09/16 06:02:12;;;;;;;8.43;5.43;;;;;;;;;;2073779;28;20197;-63